sensor_id;sensor_type;location;lat;lon;timestamp;P1;durP1;ratioP1;P2;durP2;ratioP2
70367;SDS011;57789;53.868;10.728;2022-10-16T00:01:26;6.73;;;4.03;;
70367;SDS011;57789;53.868;10.728;2022-10-16T00:03:54;14.53;;;5.90;;
70367;SDS011;57789;53.868;10.728;2022-10-16T00:06:22;7.73;;;5.23;;
70367;SDS011;57789;53.868;10.728;2022-10-16T00:08:48;5.33;;;4.57;;
70367;SDS011;57789;53.868;10.728;2022-10-16T00:11:16;4.77;;;3.63;;
70367;SDS011;57789;53.868;10.728;2022-10-16T00:13:44;8.70;;;5.57;;
70367;SDS011;57789;53.868;10.728;2022-10-16T00:16:12;8.07;;;3.97;;
70367;SDS011;57789;53.868;10.728;2022-10-16T00:18:38;5.40;;;4.00;;
70367;SDS011;57789;53.868;10.728;2022-10-16T00:21:05;9.13;;;4.70;;
70367;SDS011;57789;53.868;10.728;2022-10-16T00:23:36;15.10;;;9.60;;
70367;SDS011;57789;53.868;10.728;2022-10-16T00:26:03;10.57;;;7.77;;
70367;SDS011;57789;53.868;10.728;2022-10-16T00:28:31;6.97;;;4.90;;
70367;SDS011;57789;53.868;10.728;2022-10-16T00:30:57;21.43;;;11.83;;
70367;SDS011;57789;53.868;10.728;2022-10-16T00:33:22;12.27;;;5.20;;
70367;SDS011;57789;53.868;10.728;2022-10-16T00:35:48;13.00;;;6.00;;
70367;SDS011;57789;53.868;10.728;2022-10-16T00:38:15;25.50;;;5.90;;
70367;SDS011;57789;53.868;10.728;2022-10-16T00:40:41;19.33;;;7.70;;
70367;SDS011;57789;53.868;10.728;2022-10-16T00:43:40;12.03;;;7.00;;
70367;SDS011;57789;53.868;10.728;2022-10-16T00:49:01;16.67;;;7.90;;
70367;SDS011;57789;53.868;10.728;2022-10-16T00:51:33;9.27;;;6.30;;
70367;SDS011;57789;53.868;10.728;2022-10-16T00:54:00;6.50;;;4.77;;
70367;SDS011;57789;53.868;10.728;2022-10-16T00:56:32;8.33;;;4.30;;
70367;SDS011;57789;53.868;10.728;2022-10-16T00:58:58;6.87;;;4.30;;
70367;SDS011;57789;53.868;10.728;2022-10-16T01:01:26;7.53;;;4.90;;
70367;SDS011;57789;53.868;10.728;2022-10-16T01:03:55;6.03;;;4.27;;
70367;SDS011;57789;53.868;10.728;2022-10-16T01:08:58;11.90;;;4.70;;
70367;SDS011;57789;53.868;10.728;2022-10-16T01:14:05;6.70;;;5.07;;
70367;SDS011;57789;53.868;10.728;2022-10-16T01:22:11;6.53;;;4.70;;
70367;SDS011;57789;53.868;10.728;2022-10-16T01:27:14;6.07;;;4.77;;
70367;SDS011;57789;53.868;10.728;2022-10-16T01:30:07;4.73;;;4.17;;
70367;SDS011;57789;53.868;10.728;2022-10-16T01:35:27;12.07;;;5.00;;
70367;SDS011;57789;53.868;10.728;2022-10-16T01:38:03;9.00;;;6.20;;
70367;SDS011;57789;53.868;10.728;2022-10-16T01:40:42;7.87;;;5.50;;
70367;SDS011;57789;53.868;10.728;2022-10-16T01:43:14;9.10;;;5.17;;
70367;SDS011;57789;53.868;10.728;2022-10-16T01:45:42;8.60;;;5.37;;
70367;SDS011;57789;53.868;10.728;2022-10-16T01:48:12;8.37;;;4.47;;
70367;SDS011;57789;53.868;10.728;2022-10-16T01:50:41;11.43;;;5.00;;
70367;SDS011;57789;53.868;10.728;2022-10-16T01:53:09;8.97;;;5.00;;
70367;SDS011;57789;53.868;10.728;2022-10-16T01:55:46;5.37;;;4.63;;
70367;SDS011;57789;53.868;10.728;2022-10-16T01:58:15;10.63;;;6.10;;
70367;SDS011;57789;53.868;10.728;2022-10-16T02:00:42;7.10;;;5.30;;
70367;SDS011;57789;53.868;10.728;2022-10-16T02:03:11;6.47;;;4.60;;
70367;SDS011;57789;53.868;10.728;2022-10-16T02:05:51;6.10;;;4.20;;
70367;SDS011;57789;53.868;10.728;2022-10-16T02:08:20;4.83;;;4.33;;
70367;SDS011;57789;53.868;10.728;2022-10-16T02:10:48;7.87;;;4.43;;
70367;SDS011;57789;53.868;10.728;2022-10-16T02:15:52;6.90;;;4.57;;
70367;SDS011;57789;53.868;10.728;2022-10-16T02:18:21;9.93;;;4.10;;
70367;SDS011;57789;53.868;10.728;2022-10-16T02:20:55;6.17;;;4.70;;
70367;SDS011;57789;53.868;10.728;2022-10-16T02:26:20;7.00;;;4.00;;
70367;SDS011;57789;53.868;10.728;2022-10-16T02:29:02;7.80;;;4.33;;
70367;SDS011;57789;53.868;10.728;2022-10-16T02:31:34;6.33;;;3.77;;
70367;SDS011;57789;53.868;10.728;2022-10-16T02:34:03;8.70;;;3.80;;
70367;SDS011;57789;53.868;10.728;2022-10-16T02:36:31;6.03;;;4.13;;
70367;SDS011;57789;53.868;10.728;2022-10-16T02:38:59;7.03;;;3.83;;
70367;SDS011;57789;53.868;10.728;2022-10-16T02:41:26;9.50;;;3.13;;
70367;SDS011;57789;53.868;10.728;2022-10-16T02:43:52;8.20;;;3.50;;
70367;SDS011;57789;53.868;10.728;2022-10-16T02:46:19;4.90;;;3.73;;
70367;SDS011;57789;53.868;10.728;2022-10-16T02:48:45;4.73;;;3.23;;
70367;SDS011;57789;53.868;10.728;2022-10-16T02:51:11;7.03;;;2.97;;
70367;SDS011;57789;53.868;10.728;2022-10-16T02:53:37;13.00;;;4.67;;
70367;SDS011;57789;53.868;10.728;2022-10-16T02:56:02;6.80;;;2.67;;
70367;SDS011;57789;53.868;10.728;2022-10-16T02:58:28;3.90;;;2.97;;
70367;SDS011;57789;53.868;10.728;2022-10-16T03:00:54;5.90;;;2.53;;
70367;SDS011;57789;53.868;10.728;2022-10-16T03:03:20;4.60;;;2.60;;
70367;SDS011;57789;53.868;10.728;2022-10-16T03:05:46;7.73;;;3.20;;
70367;SDS011;57789;53.868;10.728;2022-10-16T03:08:12;18.30;;;3.20;;
70367;SDS011;57789;53.868;10.728;2022-10-16T03:10:38;6.43;;;2.60;;
70367;SDS011;57789;53.868;10.728;2022-10-16T03:13:04;9.43;;;4.13;;
70367;SDS011;57789;53.868;10.728;2022-10-16T03:15:29;7.20;;;3.67;;
70367;SDS011;57789;53.868;10.728;2022-10-16T03:17:57;4.80;;;3.00;;
70367;SDS011;57789;53.868;10.728;2022-10-16T03:20:24;5.27;;;4.20;;
70367;SDS011;57789;53.868;10.728;2022-10-16T03:22:50;4.47;;;2.40;;
70367;SDS011;57789;53.868;10.728;2022-10-16T03:25:16;6.43;;;2.73;;
70367;SDS011;57789;53.868;10.728;2022-10-16T03:27:41;13.93;;;3.10;;
70367;SDS011;57789;53.868;10.728;2022-10-16T03:30:07;8.60;;;3.50;;
70367;SDS011;57789;53.868;10.728;2022-10-16T03:32:33;27.33;;;3.00;;
70367;SDS011;57789;53.868;10.728;2022-10-16T03:34:59;9.80;;;2.80;;
70367;SDS011;57789;53.868;10.728;2022-10-16T03:37:25;5.70;;;2.60;;
70367;SDS011;57789;53.868;10.728;2022-10-16T03:39:50;6.27;;;2.87;;
70367;SDS011;57789;53.868;10.728;2022-10-16T03:42:16;5.20;;;2.70;;
70367;SDS011;57789;53.868;10.728;2022-10-16T03:44:42;8.70;;;3.23;;
70367;SDS011;57789;53.868;10.728;2022-10-16T03:47:07;6.83;;;2.90;;
70367;SDS011;57789;53.868;10.728;2022-10-16T03:49:33;5.00;;;3.00;;
70367;SDS011;57789;53.868;10.728;2022-10-16T03:51:59;4.47;;;2.50;;
70367;SDS011;57789;53.868;10.728;2022-10-16T03:54:24;4.37;;;1.90;;
70367;SDS011;57789;53.868;10.728;2022-10-16T03:56:50;13.63;;;2.20;;
70367;SDS011;57789;53.868;10.728;2022-10-16T03:59:15;3.33;;;2.43;;
70367;SDS011;57789;53.868;10.728;2022-10-16T04:01:41;3.97;;;2.00;;
70367;SDS011;57789;53.868;10.728;2022-10-16T04:04:07;3.17;;;1.83;;
70367;SDS011;57789;53.868;10.728;2022-10-16T04:06:32;4.93;;;2.20;;
70367;SDS011;57789;53.868;10.728;2022-10-16T04:08:58;3.03;;;1.97;;
70367;SDS011;57789;53.868;10.728;2022-10-16T04:11:23;6.93;;;1.70;;
70367;SDS011;57789;53.868;10.728;2022-10-16T04:13:49;2.80;;;2.00;;
70367;SDS011;57789;53.868;10.728;2022-10-16T04:16:15;3.27;;;1.63;;
70367;SDS011;57789;53.868;10.728;2022-10-16T04:18:40;3.17;;;1.97;;
70367;SDS011;57789;53.868;10.728;2022-10-16T04:21:06;4.43;;;1.93;;
70367;SDS011;57789;53.868;10.728;2022-10-16T04:23:32;6.00;;;1.87;;
70367;SDS011;57789;53.868;10.728;2022-10-16T04:25:59;2.37;;;1.87;;
70367;SDS011;57789;53.868;10.728;2022-10-16T04:28:25;3.27;;;2.00;;
70367;SDS011;57789;53.868;10.728;2022-10-16T04:30:51;11.63;;;2.10;;
70367;SDS011;57789;53.868;10.728;2022-10-16T04:33:20;2.67;;;1.63;;
70367;SDS011;57789;53.868;10.728;2022-10-16T04:35:45;2.60;;;1.70;;
70367;SDS011;57789;53.868;10.728;2022-10-16T04:38:11;2.73;;;1.73;;
70367;SDS011;57789;53.868;10.728;2022-10-16T04:40:41;4.80;;;1.77;;
70367;SDS011;57789;53.868;10.728;2022-10-16T04:43:07;3.00;;;1.50;;
70367;SDS011;57789;53.868;10.728;2022-10-16T04:45:33;1.67;;;1.57;;
70367;SDS011;57789;53.868;10.728;2022-10-16T04:47:58;1.87;;;1.47;;
70367;SDS011;57789;53.868;10.728;2022-10-16T04:50:24;2.70;;;1.97;;
70367;SDS011;57789;53.868;10.728;2022-10-16T04:52:50;5.50;;;1.50;;
70367;SDS011;57789;53.868;10.728;2022-10-16T04:55:16;2.53;;;1.60;;
70367;SDS011;57789;53.868;10.728;2022-10-16T04:57:41;6.03;;;1.47;;
70367;SDS011;57789;53.868;10.728;2022-10-16T05:00:10;3.80;;;1.67;;
70367;SDS011;57789;53.868;10.728;2022-10-16T05:02:36;8.93;;;2.10;;
70367;SDS011;57789;53.868;10.728;2022-10-16T05:05:02;4.30;;;2.00;;
70367;SDS011;57789;53.868;10.728;2022-10-16T05:07:27;3.70;;;1.57;;
70367;SDS011;57789;53.868;10.728;2022-10-16T05:09:53;5.73;;;1.63;;
70367;SDS011;57789;53.868;10.728;2022-10-16T05:12:19;5.60;;;1.57;;
70367;SDS011;57789;53.868;10.728;2022-10-16T05:14:44;3.57;;;1.70;;
70367;SDS011;57789;53.868;10.728;2022-10-16T05:17:10;4.17;;;1.40;;
70367;SDS011;57789;53.868;10.728;2022-10-16T05:19:36;2.90;;;1.60;;
70367;SDS011;57789;53.868;10.728;2022-10-16T05:22:01;7.00;;;1.60;;
70367;SDS011;57789;53.868;10.728;2022-10-16T05:24:27;2.30;;;1.40;;
70367;SDS011;57789;53.868;10.728;2022-10-16T05:26:53;4.50;;;1.30;;
70367;SDS011;57789;53.868;10.728;2022-10-16T05:29:18;3.83;;;1.73;;
70367;SDS011;57789;53.868;10.728;2022-10-16T05:31:44;3.53;;;1.40;;
70367;SDS011;57789;53.868;10.728;2022-10-16T05:34:10;2.67;;;1.57;;
70367;SDS011;57789;53.868;10.728;2022-10-16T05:36:35;3.37;;;1.73;;
70367;SDS011;57789;53.868;10.728;2022-10-16T05:39:02;6.33;;;1.63;;
70367;SDS011;57789;53.868;10.728;2022-10-16T05:41:27;2.50;;;1.30;;
70367;SDS011;57789;53.868;10.728;2022-10-16T05:43:53;6.47;;;1.77;;
70367;SDS011;57789;53.868;10.728;2022-10-16T05:46:19;2.30;;;1.50;;
70367;SDS011;57789;53.868;10.728;2022-10-16T05:48:45;2.73;;;1.70;;
70367;SDS011;57789;53.868;10.728;2022-10-16T05:51:12;1.80;;;1.40;;
70367;SDS011;57789;53.868;10.728;2022-10-16T05:53:39;4.07;;;1.23;;
70367;SDS011;57789;53.868;10.728;2022-10-16T05:56:06;2.80;;;1.70;;
70367;SDS011;57789;53.868;10.728;2022-10-16T05:58:35;1.67;;;1.53;;
70367;SDS011;57789;53.868;10.728;2022-10-16T06:01:03;2.93;;;1.30;;
70367;SDS011;57789;53.868;10.728;2022-10-16T06:03:32;3.67;;;1.23;;
70367;SDS011;57789;53.868;10.728;2022-10-16T06:05:58;3.30;;;1.60;;
70367;SDS011;57789;53.868;10.728;2022-10-16T06:08:24;4.40;;;1.70;;
70367;SDS011;57789;53.868;10.728;2022-10-16T06:11:00;8.67;;;2.13;;
70367;SDS011;57789;53.868;10.728;2022-10-16T06:13:27;3.37;;;1.70;;
70367;SDS011;57789;53.868;10.728;2022-10-16T06:15:53;5.30;;;1.70;;
70367;SDS011;57789;53.868;10.728;2022-10-16T06:18:21;7.97;;;1.80;;
70367;SDS011;57789;53.868;10.728;2022-10-16T06:20:47;4.60;;;1.90;;
70367;SDS011;57789;53.868;10.728;2022-10-16T06:23:12;3.20;;;1.43;;
70367;SDS011;57789;53.868;10.728;2022-10-16T06:25:38;3.80;;;1.63;;
70367;SDS011;57789;53.868;10.728;2022-10-16T06:28:04;10.30;;;1.90;;
70367;SDS011;57789;53.868;10.728;2022-10-16T06:30:29;7.90;;;1.77;;
70367;SDS011;57789;53.868;10.728;2022-10-16T06:32:55;5.60;;;2.07;;
70367;SDS011;57789;53.868;10.728;2022-10-16T06:35:21;5.90;;;1.60;;
70367;SDS011;57789;53.868;10.728;2022-10-16T06:37:49;5.50;;;2.00;;
70367;SDS011;57789;53.868;10.728;2022-10-16T06:40:15;2.07;;;1.23;;
70367;SDS011;57789;53.868;10.728;2022-10-16T06:42:41;4.00;;;1.63;;
70367;SDS011;57789;53.868;10.728;2022-10-16T06:45:10;8.87;;;2.53;;
70367;SDS011;57789;53.868;10.728;2022-10-16T06:47:37;5.50;;;1.57;;
70367;SDS011;57789;53.868;10.728;2022-10-16T06:50:03;3.80;;;1.83;;
70367;SDS011;57789;53.868;10.728;2022-10-16T06:52:31;4.37;;;1.70;;
70367;SDS011;57789;53.868;10.728;2022-10-16T06:55:00;11.40;;;1.50;;
70367;SDS011;57789;53.868;10.728;2022-10-16T06:57:26;6.10;;;2.10;;
70367;SDS011;57789;53.868;10.728;2022-10-16T06:59:52;3.27;;;1.50;;
70367;SDS011;57789;53.868;10.728;2022-10-16T07:02:17;2.70;;;1.87;;
70367;SDS011;57789;53.868;10.728;2022-10-16T07:04:43;5.57;;;2.20;;
70367;SDS011;57789;53.868;10.728;2022-10-16T07:07:09;4.27;;;2.13;;
70367;SDS011;57789;53.868;10.728;2022-10-16T07:09:34;6.27;;;1.80;;
70367;SDS011;57789;53.868;10.728;2022-10-16T07:12:00;4.73;;;1.70;;
70367;SDS011;57789;53.868;10.728;2022-10-16T07:14:26;2.87;;;1.50;;
70367;SDS011;57789;53.868;10.728;2022-10-16T07:16:52;3.87;;;1.53;;
70367;SDS011;57789;53.868;10.728;2022-10-16T07:19:18;12.23;;;1.80;;
70367;SDS011;57789;53.868;10.728;2022-10-16T07:21:44;5.63;;;1.87;;
70367;SDS011;57789;53.868;10.728;2022-10-16T07:24:13;7.07;;;2.30;;
70367;SDS011;57789;53.868;10.728;2022-10-16T07:26:41;2.77;;;1.73;;
70367;SDS011;57789;53.868;10.728;2022-10-16T07:29:11;4.67;;;1.63;;
70367;SDS011;57789;53.868;10.728;2022-10-16T07:31:39;13.43;;;1.70;;
70367;SDS011;57789;53.868;10.728;2022-10-16T07:34:05;9.77;;;1.83;;
70367;SDS011;57789;53.868;10.728;2022-10-16T07:36:31;2.43;;;1.60;;
70367;SDS011;57789;53.868;10.728;2022-10-16T07:39:00;7.57;;;1.77;;
70367;SDS011;57789;53.868;10.728;2022-10-16T07:41:26;5.60;;;2.00;;
70367;SDS011;57789;53.868;10.728;2022-10-16T07:43:52;4.30;;;1.90;;
70367;SDS011;57789;53.868;10.728;2022-10-16T07:46:20;2.00;;;1.37;;
70367;SDS011;57789;53.868;10.728;2022-10-16T07:48:47;6.50;;;1.87;;
70367;SDS011;57789;53.868;10.728;2022-10-16T07:51:20;3.53;;;1.50;;
70367;SDS011;57789;53.868;10.728;2022-10-16T07:53:48;4.70;;;2.63;;
70367;SDS011;57789;53.868;10.728;2022-10-16T07:56:15;8.80;;;2.00;;
70367;SDS011;57789;53.868;10.728;2022-10-16T07:58:41;2.00;;;1.37;;
70367;SDS011;57789;53.868;10.728;2022-10-16T08:01:11;3.43;;;1.33;;
70367;SDS011;57789;53.868;10.728;2022-10-16T08:03:41;2.60;;;1.73;;
70367;SDS011;57789;53.868;10.728;2022-10-16T08:06:08;3.60;;;1.47;;
70367;SDS011;57789;53.868;10.728;2022-10-16T08:08:34;3.10;;;1.80;;
70367;SDS011;57789;53.868;10.728;2022-10-16T08:11:00;6.77;;;2.00;;
70367;SDS011;57789;53.868;10.728;2022-10-16T08:13:28;4.40;;;1.87;;
70367;SDS011;57789;53.868;10.728;2022-10-16T08:15:54;9.33;;;2.23;;
70367;SDS011;57789;53.868;10.728;2022-10-16T08:18:20;6.40;;;2.00;;
70367;SDS011;57789;53.868;10.728;2022-10-16T08:20:46;5.00;;;1.80;;
70367;SDS011;57789;53.868;10.728;2022-10-16T08:23:12;3.90;;;2.13;;
70367;SDS011;57789;53.868;10.728;2022-10-16T08:25:38;3.73;;;1.97;;
70367;SDS011;57789;53.868;10.728;2022-10-16T08:28:08;5.80;;;2.00;;
70367;SDS011;57789;53.868;10.728;2022-10-16T08:30:35;5.77;;;2.00;;
70367;SDS011;57789;53.868;10.728;2022-10-16T08:33:01;6.20;;;2.10;;
70367;SDS011;57789;53.868;10.728;2022-10-16T08:35:27;4.37;;;2.30;;
70367;SDS011;57789;53.868;10.728;2022-10-16T08:37:53;5.83;;;3.40;;
70367;SDS011;57789;53.868;10.728;2022-10-16T08:40:22;19.67;;;2.57;;
70367;SDS011;57789;53.868;10.728;2022-10-16T08:48:30;5.93;;;3.20;;
70367;SDS011;57789;53.868;10.728;2022-10-16T08:51:12;9.07;;;3.30;;
70367;SDS011;57789;53.868;10.728;2022-10-16T08:56:39;7.03;;;3.37;;
70367;SDS011;57789;53.868;10.728;2022-10-16T08:59:06;8.13;;;4.60;;
70367;SDS011;57789;53.868;10.728;2022-10-16T09:01:41;9.60;;;5.60;;
70367;SDS011;57789;53.868;10.728;2022-10-16T09:12:04;4.23;;;1.83;;
70367;SDS011;57789;53.868;10.728;2022-10-16T09:17:41;2.43;;;1.97;;
70367;SDS011;57789;53.868;10.728;2022-10-16T09:22:36;4.23;;;2.67;;
70367;SDS011;57789;53.868;10.728;2022-10-16T09:25:10;3.50;;;2.00;;
70367;SDS011;57789;53.868;10.728;2022-10-16T09:27:38;2.17;;;1.40;;
70367;SDS011;57789;53.868;10.728;2022-10-16T09:30:10;3.20;;;1.90;;
70367;SDS011;57789;53.868;10.728;2022-10-16T09:32:41;3.87;;;1.30;;
70367;SDS011;57789;53.868;10.728;2022-10-16T09:35:13;5.70;;;2.03;;
70367;SDS011;57789;53.868;10.728;2022-10-16T09:37:42;5.20;;;1.27;;
70367;SDS011;57789;53.868;10.728;2022-10-16T09:40:12;4.50;;;1.63;;
70367;SDS011;57789;53.868;10.728;2022-10-16T09:45:42;3.63;;;1.10;;
70367;SDS011;57789;53.868;10.728;2022-10-16T09:48:17;3.63;;;1.57;;
70367;SDS011;57789;53.868;10.728;2022-10-16T09:50:54;9.43;;;1.50;;
70367;SDS011;57789;53.868;10.728;2022-10-16T09:53:21;2.13;;;1.47;;
70367;SDS011;57789;53.868;10.728;2022-10-16T09:55:53;5.70;;;1.80;;
70367;SDS011;57789;53.868;10.728;2022-10-16T09:58:22;2.93;;;1.50;;
70367;SDS011;57789;53.868;10.728;2022-10-16T10:00:50;6.13;;;3.07;;
70367;SDS011;57789;53.868;10.728;2022-10-16T10:06:28;3.17;;;1.60;;
70367;SDS011;57789;53.868;10.728;2022-10-16T10:09:29;4.20;;;1.00;;
70367;SDS011;57789;53.868;10.728;2022-10-16T10:12:02;6.63;;;1.57;;
70367;SDS011;57789;53.868;10.728;2022-10-16T10:14:31;3.40;;;1.50;;
70367;SDS011;57789;53.868;10.728;2022-10-16T10:19:39;3.97;;;1.40;;
70367;SDS011;57789;53.868;10.728;2022-10-16T10:22:29;4.27;;;1.13;;
70367;SDS011;57789;53.868;10.728;2022-10-16T10:30:15;4.37;;;1.13;;
70367;SDS011;57789;53.868;10.728;2022-10-16T10:32:49;2.70;;;1.20;;
70367;SDS011;57789;53.868;10.728;2022-10-16T10:40:51;3.20;;;1.03;;
70367;SDS011;57789;53.868;10.728;2022-10-16T10:45:52;4.50;;;1.40;;
70367;SDS011;57789;53.868;10.728;2022-10-16T10:51:13;3.70;;;1.03;;
70367;SDS011;57789;53.868;10.728;2022-10-16T10:54:06;6.37;;;1.43;;
70367;SDS011;57789;53.868;10.728;2022-10-16T10:56:57;7.03;;;1.40;;
70367;SDS011;57789;53.868;10.728;2022-10-16T10:59:43;2.70;;;1.07;;
70367;SDS011;57789;53.868;10.728;2022-10-16T11:05:39;1.50;;;1.10;;
70367;SDS011;57789;53.868;10.728;2022-10-16T11:10:52;5.83;;;1.03;;
70367;SDS011;57789;53.868;10.728;2022-10-16T11:13:54;2.13;;;0.87;;
70367;SDS011;57789;53.868;10.728;2022-10-16T11:16:38;3.37;;;1.00;;
70367;SDS011;57789;53.868;10.728;2022-10-16T11:21:42;11.83;;;1.20;;
70367;SDS011;57789;53.868;10.728;2022-10-16T11:24:23;2.20;;;0.83;;
70367;SDS011;57789;53.868;10.728;2022-10-16T11:27:07;7.10;;;1.30;;
70367;SDS011;57789;53.868;10.728;2022-10-16T11:29:43;3.17;;;1.13;;
70367;SDS011;57789;53.868;10.728;2022-10-16T11:39:11;2.17;;;0.80;;
70367;SDS011;57789;53.868;10.728;2022-10-16T11:41:20;3.33;;;0.90;;
70367;SDS011;57789;53.868;10.728;2022-10-16T11:46:30;7.83;;;1.33;;
70367;SDS011;57789;53.868;10.728;2022-10-16T11:49:03;5.67;;;1.30;;
70367;SDS011;57789;53.868;10.728;2022-10-16T11:51:48;6.60;;;1.53;;
70367;SDS011;57789;53.868;10.728;2022-10-16T11:57:10;5.50;;;1.17;;
70367;SDS011;57789;53.868;10.728;2022-10-16T12:00:00;5.80;;;1.27;;
70367;SDS011;57789;53.868;10.728;2022-10-16T12:02:35;2.20;;;1.00;;
70367;SDS011;57789;53.868;10.728;2022-10-16T12:08:12;3.80;;;1.40;;
70367;SDS011;57789;53.868;10.728;2022-10-16T12:10:41;3.60;;;1.33;;
70367;SDS011;57789;53.868;10.728;2022-10-16T12:14:03;3.17;;;0.97;;
70367;SDS011;57789;53.868;10.728;2022-10-16T12:18:32;8.30;;;1.50;;
70367;SDS011;57789;53.868;10.728;2022-10-16T12:20:59;4.97;;;2.23;;
70367;SDS011;57789;53.868;10.728;2022-10-16T12:23:30;4.70;;;1.30;;
70367;SDS011;57789;53.868;10.728;2022-10-16T12:25:58;4.00;;;1.60;;
70367;SDS011;57789;53.868;10.728;2022-10-16T12:28:26;5.43;;;2.07;;
70367;SDS011;57789;53.868;10.728;2022-10-16T12:30:57;3.77;;;1.47;;
70367;SDS011;57789;53.868;10.728;2022-10-16T12:33:26;11.47;;;1.97;;
70367;SDS011;57789;53.868;10.728;2022-10-16T12:35:55;3.60;;;1.00;;
70367;SDS011;57789;53.868;10.728;2022-10-16T12:38:26;4.77;;;1.83;;
70367;SDS011;57789;53.868;10.728;2022-10-16T12:41:04;12.10;;;1.80;;
70367;SDS011;57789;53.868;10.728;2022-10-16T12:46:19;2.90;;;1.30;;
70367;SDS011;57789;53.868;10.728;2022-10-16T12:51:40;9.00;;;1.27;;
70367;SDS011;57789;53.868;10.728;2022-10-16T12:54:14;7.40;;;1.00;;
70367;SDS011;57789;53.868;10.728;2022-10-16T12:56:58;4.07;;;0.93;;
70367;SDS011;57789;53.868;10.728;2022-10-16T13:03:00;4.90;;;1.20;;
70367;SDS011;57789;53.868;10.728;2022-10-16T13:08:18;7.43;;;1.80;;
70367;SDS011;57789;53.868;10.728;2022-10-16T13:11:09;3.60;;;1.40;;
70367;SDS011;57789;53.868;10.728;2022-10-16T13:22:11;3.83;;;1.10;;
70367;SDS011;57789;53.868;10.728;2022-10-16T13:30:23;3.40;;;1.37;;
70367;SDS011;57789;53.868;10.728;2022-10-16T13:32:54;6.60;;;1.23;;
70367;SDS011;57789;53.868;10.728;2022-10-16T13:35:31;4.80;;;1.27;;
70367;SDS011;57789;53.868;10.728;2022-10-16T13:40:47;6.80;;;2.07;;
70367;SDS011;57789;53.868;10.728;2022-10-16T13:43:14;5.33;;;1.30;;
70367;SDS011;57789;53.868;10.728;2022-10-16T13:48:41;5.53;;;1.17;;
70367;SDS011;57789;53.868;10.728;2022-10-16T13:51:15;6.20;;;1.33;;
70367;SDS011;57789;53.868;10.728;2022-10-16T13:53:43;4.43;;;1.73;;
70367;SDS011;57789;53.868;10.728;2022-10-16T13:56:11;3.63;;;1.23;;
70367;SDS011;57789;53.868;10.728;2022-10-16T13:58:41;2.10;;;0.97;;
70367;SDS011;57789;53.868;10.728;2022-10-16T14:01:22;4.40;;;1.47;;
70367;SDS011;57789;53.868;10.728;2022-10-16T14:04:06;9.43;;;1.20;;
70367;SDS011;57789;53.868;10.728;2022-10-16T14:06:35;4.57;;;1.00;;
70367;SDS011;57789;53.868;10.728;2022-10-16T14:11:35;9.90;;;1.47;;
70367;SDS011;57789;53.868;10.728;2022-10-16T14:14:13;6.53;;;1.03;;
70367;SDS011;57789;53.868;10.728;2022-10-16T14:16:41;5.70;;;1.17;;
70367;SDS011;57789;53.868;10.728;2022-10-16T14:19:44;4.67;;;1.10;;
70367;SDS011;57789;53.868;10.728;2022-10-16T14:22:00;5.17;;;2.10;;
70367;SDS011;57789;53.868;10.728;2022-10-16T14:24:31;5.00;;;1.00;;
70367;SDS011;57789;53.868;10.728;2022-10-16T14:26:59;5.70;;;1.30;;
70367;SDS011;57789;53.868;10.728;2022-10-16T14:29:26;6.67;;;2.00;;
70367;SDS011;57789;53.868;10.728;2022-10-16T14:32:04;5.33;;;1.57;;
70367;SDS011;57789;53.868;10.728;2022-10-16T14:37:05;7.07;;;1.73;;
70367;SDS011;57789;53.868;10.728;2022-10-16T14:39:50;3.83;;;1.00;;
70367;SDS011;57789;53.868;10.728;2022-10-16T14:42:17;8.40;;;1.40;;
70367;SDS011;57789;53.868;10.728;2022-10-16T14:44:45;4.47;;;0.93;;
70367;SDS011;57789;53.868;10.728;2022-10-16T14:47:13;8.10;;;1.17;;
70367;SDS011;57789;53.868;10.728;2022-10-16T14:49:47;5.00;;;1.73;;
70367;SDS011;57789;53.868;10.728;2022-10-16T14:52:20;8.03;;;1.43;;
70367;SDS011;57789;53.868;10.728;2022-10-16T14:54:49;10.73;;;5.00;;
70367;SDS011;57789;53.868;10.728;2022-10-16T14:57:22;8.20;;;1.77;;
70367;SDS011;57789;53.868;10.728;2022-10-16T14:59:51;6.87;;;1.30;;
70367;SDS011;57789;53.868;10.728;2022-10-16T15:04:46;7.50;;;1.53;;
70367;SDS011;57789;53.868;10.728;2022-10-16T15:07:12;3.43;;;1.00;;
70367;SDS011;57789;53.868;10.728;2022-10-16T15:09:37;5.30;;;1.30;;
70367;SDS011;57789;53.868;10.728;2022-10-16T15:12:03;9.00;;;2.03;;
70367;SDS011;57789;53.868;10.728;2022-10-16T15:14:32;6.47;;;1.57;;
70367;SDS011;57789;53.868;10.728;2022-10-16T15:16:58;5.90;;;1.47;;
70367;SDS011;57789;53.868;10.728;2022-10-16T15:19:25;5.90;;;1.40;;
70367;SDS011;57789;53.868;10.728;2022-10-16T15:21:50;4.77;;;1.30;;
70367;SDS011;57789;53.868;10.728;2022-10-16T15:24:17;8.20;;;2.10;;
70367;SDS011;57789;53.868;10.728;2022-10-16T15:26:43;7.37;;;1.97;;
70367;SDS011;57789;53.868;10.728;2022-10-16T15:29:11;4.47;;;1.27;;
70367;SDS011;57789;53.868;10.728;2022-10-16T15:31:37;10.43;;;1.47;;
70367;SDS011;57789;53.868;10.728;2022-10-16T15:34:03;5.57;;;1.27;;
70367;SDS011;57789;53.868;10.728;2022-10-16T15:36:36;4.57;;;1.30;;
70367;SDS011;57789;53.868;10.728;2022-10-16T15:39:18;4.33;;;1.43;;
70367;SDS011;57789;53.868;10.728;2022-10-16T15:41:45;5.47;;;1.40;;
70367;SDS011;57789;53.868;10.728;2022-10-16T15:44:15;12.30;;;2.97;;
70367;SDS011;57789;53.868;10.728;2022-10-16T15:46:45;11.30;;;1.50;;
70367;SDS011;57789;53.868;10.728;2022-10-16T15:49:12;4.60;;;1.37;;
70367;SDS011;57789;53.868;10.728;2022-10-16T15:51:39;4.67;;;2.37;;
70367;SDS011;57789;53.868;10.728;2022-10-16T15:54:06;8.40;;;2.30;;
70367;SDS011;57789;53.868;10.728;2022-10-16T15:56:32;8.57;;;1.53;;
70367;SDS011;57789;53.868;10.728;2022-10-16T15:58:59;7.53;;;1.20;;
70367;SDS011;57789;53.868;10.728;2022-10-16T16:01:26;4.63;;;1.77;;
70367;SDS011;57789;53.868;10.728;2022-10-16T16:03:52;4.60;;;1.47;;
70367;SDS011;57789;53.868;10.728;2022-10-16T16:06:19;3.10;;;1.40;;
70367;SDS011;57789;53.868;10.728;2022-10-16T16:08:45;6.27;;;2.27;;
70367;SDS011;57789;53.868;10.728;2022-10-16T16:11:11;8.40;;;2.00;;
70367;SDS011;57789;53.868;10.728;2022-10-16T16:13:39;8.80;;;1.80;;
70367;SDS011;57789;53.868;10.728;2022-10-16T16:16:09;5.67;;;1.90;;
70367;SDS011;57789;53.868;10.728;2022-10-16T16:18:36;8.03;;;2.50;;
70367;SDS011;57789;53.868;10.728;2022-10-16T16:21:04;8.93;;;3.33;;
70367;SDS011;57789;53.868;10.728;2022-10-16T16:23:30;7.63;;;2.17;;
70367;SDS011;57789;53.868;10.728;2022-10-16T16:26:12;11.87;;;2.23;;
70367;SDS011;57789;53.868;10.728;2022-10-16T16:28:40;6.90;;;2.10;;
70367;SDS011;57789;53.868;10.728;2022-10-16T16:31:08;8.10;;;2.40;;
70367;SDS011;57789;53.868;10.728;2022-10-16T16:33:34;8.23;;;2.70;;
70367;SDS011;57789;53.868;10.728;2022-10-16T16:36:03;6.30;;;2.97;;
70367;SDS011;57789;53.868;10.728;2022-10-16T16:38:31;9.70;;;2.53;;
70367;SDS011;57789;53.868;10.728;2022-10-16T16:40:57;23.37;;;4.23;;
70367;SDS011;57789;53.868;10.728;2022-10-16T16:43:24;6.80;;;2.57;;
70367;SDS011;57789;53.868;10.728;2022-10-16T16:45:51;8.43;;;2.50;;
70367;SDS011;57789;53.868;10.728;2022-10-16T16:48:17;10.27;;;3.37;;
70367;SDS011;57789;53.868;10.728;2022-10-16T16:50:43;11.37;;;3.40;;
70367;SDS011;57789;53.868;10.728;2022-10-16T16:53:09;6.20;;;2.97;;
70367;SDS011;57789;53.868;10.728;2022-10-16T16:55:35;8.43;;;4.27;;
70367;SDS011;57789;53.868;10.728;2022-10-16T16:58:00;15.40;;;4.40;;
70367;SDS011;57789;53.868;10.728;2022-10-16T17:00:27;11.93;;;3.70;;
70367;SDS011;57789;53.868;10.728;2022-10-16T17:02:53;16.70;;;3.97;;